Terminal Aerodrome Forecast
Issued by NWS Charleston, WV

Current Version | Previous Version | Text Only | Print | Product List | Glossary Off
Versions: 1 2 3 4 5 6 7 8 9 10 11 12 13 14 15 16 17 18 19 20 21 22 23 24

714
FTUS41 KRLX 210541
TAFCRW
TAF
KCRW 210541Z 2106/2206 15007KT P6SM SCT200
     FM211400 16005KT 5SM SHRA VCTS BKN035CB
     FM211800 17007KT 2SM SHRA VCTS BKN025CB OVC050
     FM220000 16005KT 3SM -SHRA BKN015 OVC035=

USA.gov is the U.S. government's official web portal to all federal, state and local government web resources and services.